AirNav   Everest Fuels
 
 1205 users online  

NJ63 Eagles Lair Airport
Frenchtown, New Jersey, USA

GOING TO FRENCHTOWN?


FAA INFORMATION EFFECTIVE 10 OCTOBER 2019

Location

FAA Identifier: NJ63
Lat/Long: 40-28-04.3730N 075-03-01.6130W
40-28.072883N 075-03.026883W
40.4678814,-75.0504481
(estimated)
Elevation: 460 ft. / 140 m (estimated)
Variation: 12W (1985)
From city: 4 miles S of FRENCHTOWN, NJ
Time zone: UTC -4 (UTC -5 during Standard Time)
Zip code: 08825

Airport Operations

Airport use: Private use. Permission required prior to landing
Control tower: no
ARTCC: NEW YORK CENTER
FSS: MILLVILLE FLIGHT SERVICE STATION
Attendance: CONTINUOUS
Wind indicator: yes
Segmented circle: no
Beacon: white (unlighted land airport)
FOR ROTG BCN CALL 908-996-2469.

Airport Communications

WX ASOS at DYL (9 nm S): 118.875 (215-345-0392)
WX AWOS-3 at CKZ (12 nm SW): 126.325 (215-257-7291)
WX AWOS-3 at UKT (15 nm W): 119.475 (215-538-7610)
WX ASOS at TTN (16 nm SE): 126.775 (609-538-8690)
WX ASOS at SMQ (20 nm NE): 120.6 (908-722-2139)

Nearby radio navigation aids

VOR radial/distance  VOR name  Freq  Var
ARDr343/14.4YARDLEY VOR/DME108.2010W
SBJr254/15.7SOLBERG VOR/DME112.9010W
BWZr219/22.4BROADWAY VOR/DME114.2011W
FJCr140/24.1ALLENTOWN VORTAC117.5010W
PTWr067/27.6POTTSTOWN VORTAC116.5009W
ETXr112/29.7EAST TEXAS VOR/DME110.2009W
RBVr312/30.0ROBBINSVILLE VORTAC113.8010W
STWr206/32.7STILLWATER VOR/DME109.6011W
GXUr335/34.5MC GUIRE VORTAC110.6012W

 
NDB name  Hdg/Dist  Freq  Var  ID
AMBLER040/23.227512WING .. -. --.
CHATHAM253/32.725413WCAT -.-. .- -

Airport Services

Airframe service: NONE
Powerplant service: NONE

Runway Information

Runway 7/25

Dimensions: 3200 x 100 ft. / 975 x 30 m
Surface: turf
RUNWAY 7  RUNWAY 25
Traffic pattern: leftleft

Airport Ownership and Management from official FAA records

Ownership: Privately-owned
Owner: SANDRA S SIANO
127 WARFORD ROAD
FRENCHTOWN, NJ 08825
Phone 908-996-2469

Airport Operational Statistics

Aircraft based on the field: 2
Single engine airplanes: 2
    

Additional Remarks

FOR CD CTC PHILADELPHIA APCH AT 800-354-9884.

Instrument Procedures

There are no published instrument procedures at NJ63.

Some nearby airports with instrument procedures:

N40 - Sky Manor Airport (7 nm NE)
N85 - Alexandria Airport (7 nm N)
KDYL - Doylestown Airport (9 nm S)
KCKZ - Pennridge Airport (12 nm SW)
KUKT - Quakertown Airport (15 nm W)
KTTN - Trenton Mercer Airport (16 nm SE)
N51 - Solberg-Hunterdon Airport (16 nm NE)
39N - Princeton Airport (18 nm E)
N43 - Braden Airpark (19 nm NW)
KSMQ - Somerset Airport (20 nm NE)
 
Loc | Ops | Rwys | IFR | FBO | Links
Com | Nav | Svcs | Stats | Notes
Area around NJ63 (Eagles Lair Airport)
 
Road maps at: MapQuest Bing Google
 
Aerial photo
WARNING: Photo may not be current or correct
Aerial photo of NJ63 (Eagles Lair Airport)
Photo by Captain Richard P. Siano
Photo taken 20-Mar-2012
looking northwest.

Do you have a better or more recent aerial photo of Eagles Lair Airport that you would like to share? If so, please send us your photo.

 
Sectional chart

 
Airport distance calculator
Flying to Eagles Lair Airport? Find the distance to fly.

From to NJ63

Sunrise and sunset
Times for 21-Oct-2019
 Local
(UTC-4)
 Zulu
(UTC)
Morning civil twilight06:5110:51
Sunrise07:1911:19
Sunset18:1122:11
Evening civil twilight18:3922:39

Current date and time
Zulu (UTC)  21-Oct-2019 21:46:03
Local (UTC-4)  21-Oct-2019 17:46:03
 
METAR
KDYL 
9nm S 
212054Z AUTO 00000KT 10SM CLR 19/07 A3006 RMK AO2 SLP178 T01940067 53003
KCKZ 
12nm SW 
212055Z AUTO RMK AO2
KUKT 
15nm W 
212140Z AUTO 10004KT 10SM CLR 18/07 A3007 RMK A01
KTTN 
15nm SE 
ASOS 133.70 609-538-8690
212053Z 08008KT 10SM CLR 19/07 A3007 RMK AO2 SLP175 T01890067 53007
KSMQ 
20nm NE 
ASOS 120.60 908-722-2139
212053Z AUTO 00000KT 10SM CLR 20/07 A3005 RMK AO2 SLP175 T02000067 53002
TAF
KTTN 
15nm SE 
211729Z 2118/2218 08006KT P6SM SKC FM220300 VRB03KT P6SM BKN100 FM221000 07005KT P6SM BKN030 FM221300 09007KT P6SM VCSH OVC010
NOTAMs
Click for the latest NOTAMs
NOTAMs are issued by the DoD/FAA and will open in a separate window not controlled by AirNav.

 

 
 

Would you like to see your business listed on this page?

 If your business provides an interesting product or service to pilots, flight crews, aircraft, or users of the Eagles Lair Airport, you should consider listing it here.  To start the listing process, click on the button below
 
Add a business
 

Other Pages about Eagles Lair Airport

Update a link
 
Copyright © AirNav, LLC. All rights reserved. Privacy Policy  Contact